AIQ151 VOTR-VTBD
Flight info
| Callsign | AIQ151 |
|---|---|
| Flight time | 3h 14m |
| Altitude | 39000 |
| Route | GOKUL T3 ADKIT N563 XOKRO P762 DWI L877 MIGAR L524 IBETO WEHHA3A |
| Aircraft | A20N/M-SDE2E3FGHIRWXY/LB1 |
Departure
| Time | 2026-04-21 12:39 |
|---|---|
| Airport | Tiruchirappalli International Airport (VOTR) |
Arrival
| Time | 2026-04-21 15:53 |
|---|---|
| Airport | Don Mueang International Airport (VTBD) |
| Time | Latitude | Longitude | Altitude | Speed | Heading |
|---|---|---|---|---|---|
| 2026-04-21 12:10 | 10.76075 | 78.71375 | 306 ft | 0 kts | 175° |
| 2026-04-21 12:28 | 10.76082 | 78.71375 | 306 ft | 0 kts | 175° |
| 2026-04-21 12:30 | 10.76109 | 78.71373 | 306 ft | 4 kts | 176° |
| 2026-04-21 12:30 | 10.76138 | 78.71378 | 306 ft | 3 kts | 215° |
| 2026-04-21 12:30 | 10.76146 | 78.71385 | 307 ft | 2 kts | 238° |
| 2026-04-21 12:30 | 10.76150 | 78.71392 | 308 ft | 2 kts | 255° |
| 2026-04-21 12:31 | 10.76151 | 78.71398 | 308 ft | 0 kts | 268° |
| 2026-04-21 12:34 | 10.76151 | 78.71384 | 308 ft | 4 kts | 268° |
| 2026-04-21 12:34 | 10.76150 | 78.71346 | 308 ft | 7 kts | 266° |
| 2026-04-21 12:35 | 10.76145 | 78.71285 | 308 ft | 10 kts | 265° |
| 2026-04-21 12:35 | 10.76139 | 78.71202 | 308 ft | 11 kts | 266° |
| 2026-04-21 12:35 | 10.76161 | 78.71137 | 309 ft | 11 kts | 315° |
| 2026-04-21 12:35 | 10.76228 | 78.71093 | 311 ft | 12 kts | 329° |
| 2026-04-21 12:36 | 10.76306 | 78.71047 | 310 ft | 14 kts | 329° |
| 2026-04-21 12:36 | 10.76400 | 78.70991 | 310 ft | 17 kts | 330° |
| 2026-04-21 12:36 | 10.76459 | 78.70955 | 310 ft | 0 kts | 329° |
| 2026-04-21 12:36 | 10.76460 | 78.70954 | 310 ft | 0 kts | 329° |
| 2026-04-21 12:37 | 10.76463 | 78.70953 | 311 ft | 1 kts | 329° |
| 2026-04-21 12:37 | 10.76477 | 78.70944 | 316 ft | 4 kts | 329° |
| 2026-04-21 12:37 | 10.76506 | 78.70927 | 312 ft | 6 kts | 329° |
| 2026-04-21 12:37 | 10.76544 | 78.70929 | 312 ft | 7 kts | 41° |
| 2026-04-21 12:38 | 10.76560 | 78.70970 | 311 ft | 0 kts | 82° |
| 2026-04-21 12:38 | 10.76585 | 78.71267 | 310 ft | 74 kts | 86° |
| 2026-04-21 12:38 | 10.76630 | 78.71905 | 312 ft | 109 kts | 85° |
| 2026-04-21 12:39 | 10.76716 | 78.72890 | 491 ft | 158 kts | 85° |
| 2026-04-21 12:39 | 10.76809 | 78.74056 | 1235 ft | 171 kts | 84° |
| 2026-04-21 12:39 | 10.76881 | 78.75277 | 2097 ft | 171 kts | 86° |
| 2026-04-21 12:39 | 10.76943 | 78.76493 | 2743 ft | 178 kts | 84° |
| 2026-04-21 12:40 | 10.77037 | 78.77814 | 3165 ft | 198 kts | 91° |
| 2026-04-21 12:40 | 10.77002 | 78.79270 | 3577 ft | 217 kts | 90° |
| 2026-04-21 12:40 | 10.76984 | 78.80883 | 3970 ft | 239 kts | 90° |
| 2026-04-21 12:40 | 10.76950 | 78.82660 | 4436 ft | 262 kts | 91° |
| 2026-04-21 12:41 | 10.76895 | 78.84555 | 5129 ft | 270 kts | 91° |
| 2026-04-21 12:41 | 10.76830 | 78.86464 | 6109 ft | 271 kts | 91° |
| 2026-04-21 12:41 | 10.76753 | 78.88393 | 6964 ft | 273 kts | 91° |
| 2026-04-21 12:41 | 10.76676 | 78.90345 | 7777 ft | 279 kts | 91° |
| 2026-04-21 12:42 | 10.76596 | 78.92327 | 8652 ft | 282 kts | 91° |
| 2026-04-21 12:42 | 10.76513 | 78.94303 | 9555 ft | 283 kts | 91° |
| 2026-04-21 12:42 | 10.76430 | 78.96330 | 10208 ft | 295 kts | 91° |
| 2026-04-21 12:42 | 10.76344 | 78.98527 | 10467 ft | 319 kts | 91° |
| 2026-04-21 12:43 | 10.76256 | 79.00832 | 10767 ft | 338 kts | 91° |
| 2026-04-21 12:43 | 10.76164 | 79.03226 | 11438 ft | 343 kts | 91° |
| 2026-04-21 12:43 | 10.76069 | 79.05675 | 12158 ft | 349 kts | 91° |
| 2026-04-21 12:43 | 10.75970 | 79.08158 | 12853 ft | 354 kts | 91° |
| 2026-04-21 12:44 | 10.75868 | 79.10686 | 13565 ft | 359 kts | 90° |
| 2026-04-21 12:44 | 10.75768 | 79.13246 | 14171 ft | 364 kts | 91° |
| 2026-04-21 12:44 | 10.75669 | 79.15839 | 14825 ft | 368 kts | 90° |
| 2026-04-21 12:44 | 10.75568 | 79.18462 | 15466 ft | 372 kts | 90° |
| 2026-04-21 12:45 | 10.75467 | 79.21105 | 16082 ft | 376 kts | 91° |
| 2026-04-21 12:45 | 10.75366 | 79.23745 | 16665 ft | 381 kts | 91° |
| 2026-04-21 12:45 | 10.75262 | 79.26455 | 17233 ft | 386 kts | 91° |
| 2026-04-21 12:45 | 10.75155 | 79.29204 | 17851 ft | 389 kts | 91° |
| 2026-04-21 12:46 | 10.75048 | 79.31962 | 18370 ft | 393 kts | 91° |
| 2026-04-21 12:46 | 10.74936 | 79.34766 | 18791 ft | 400 kts | 91° |
| 2026-04-21 12:46 | 10.74824 | 79.37611 | 19301 ft | 403 kts | 92° |
| 2026-04-21 12:46 | 10.74712 | 79.40477 | 19753 ft | 408 kts | 92° |
| 2026-04-21 12:47 | 10.74601 | 79.43344 | 20131 ft | 415 kts | 92° |
| 2026-04-21 12:47 | 10.74488 | 79.46282 | 20699 ft | 415 kts | 92° |
| 2026-04-21 12:47 | 10.74373 | 79.49236 | 21166 ft | 421 kts | 92° |
| 2026-04-21 12:47 | 10.74257 | 79.52222 | 21631 ft | 424 kts | 92° |
| 2026-04-21 12:48 | 10.74139 | 79.55235 | 22117 ft | 427 kts | 92° |
| 2026-04-21 12:48 | 10.74021 | 79.58271 | 22553 ft | 432 kts | 92° |
| 2026-04-21 12:48 | 10.73902 | 79.61346 | 22982 ft | 436 kts | 93° |
| 2026-04-21 12:48 | 10.73780 | 79.64416 | 23412 ft | 440 kts | 93° |
| 2026-04-21 12:49 | 10.73654 | 79.67567 | 23830 ft | 442 kts | 93° |
| 2026-04-21 12:49 | 10.73531 | 79.70699 | 24255 ft | 444 kts | 93° |
| 2026-04-21 12:49 | 10.73437 | 79.73841 | 24677 ft | 446 kts | 92° |
| 2026-04-21 12:49 | 10.73361 | 79.76995 | 25064 ft | 448 kts | 92° |
| 2026-04-21 12:50 | 10.73286 | 79.80132 | 25449 ft | 450 kts | 92° |
| 2026-04-21 12:50 | 10.73207 | 79.83330 | 25888 ft | 451 kts | 93° |
| 2026-04-21 12:50 | 10.73126 | 79.86530 | 26262 ft | 453 kts | 93° |
| 2026-04-21 12:50 | 10.73041 | 79.89746 | 26638 ft | 455 kts | 93° |
| 2026-04-21 12:51 | 10.72955 | 79.92976 | 27001 ft | 457 kts | 93° |
| 2026-04-21 12:51 | 10.72868 | 79.96221 | 27354 ft | 459 kts | 93° |
| 2026-04-21 12:51 | 10.72780 | 79.99436 | 27703 ft | 461 kts | 94° |
| 2026-04-21 12:51 | 10.72693 | 80.02710 | 28057 ft | 463 kts | 94° |
| 2026-04-21 12:52 | 10.72604 | 80.05984 | 28389 ft | 465 kts | 94° |
| 2026-04-21 12:52 | 10.72514 | 80.09278 | 28725 ft | 467 kts | 94° |
| 2026-04-21 12:52 | 10.72420 | 80.12602 | 29053 ft | 469 kts | 94° |
| 2026-04-21 12:52 | 10.72322 | 80.15912 | 29374 ft | 470 kts | 94° |
| 2026-04-21 12:53 | 10.72224 | 80.19212 | 29742 ft | 471 kts | 94° |
| 2026-04-21 12:53 | 10.72125 | 80.22553 | 30028 ft | 473 kts | 94° |
| 2026-04-21 12:53 | 10.72025 | 80.25909 | 30274 ft | 475 kts | 94° |
| 2026-04-21 12:53 | 10.71925 | 80.29280 | 30532 ft | 478 kts | 94° |
| 2026-04-21 12:54 | 10.71824 | 80.32672 | 30805 ft | 480 kts | 94° |
| 2026-04-21 12:54 | 10.71723 | 80.36064 | 31124 ft | 480 kts | 94° |
| 2026-04-21 12:54 | 10.71622 | 80.39455 | 31469 ft | 480 kts | 94° |
| 2026-04-21 12:54 | 10.71520 | 80.42861 | 31836 ft | 480 kts | 94° |
| 2026-04-21 12:55 | 10.71419 | 80.46200 | 32183 ft | 479 kts | 94° |
| 2026-04-21 12:55 | 10.71316 | 80.49597 | 32530 ft | 479 kts | 95° |
| 2026-04-21 12:55 | 10.71213 | 80.52987 | 32870 ft | 479 kts | 95° |
| 2026-04-21 12:55 | 10.71110 | 80.56369 | 33243 ft | 477 kts | 95° |
| 2026-04-21 12:56 | 10.71007 | 80.59734 | 33583 ft | 477 kts | 95° |
| 2026-04-21 12:56 | 10.70902 | 80.63114 | 33885 ft | 476 kts | 95° |
| 2026-04-21 12:56 | 10.70798 | 80.66484 | 34159 ft | 476 kts | 95° |
| 2026-04-21 12:56 | 10.70696 | 80.69807 | 34429 ft | 475 kts | 95° |
| 2026-04-21 12:57 | 10.70591 | 80.73163 | 34707 ft | 475 kts | 95° |
| 2026-04-21 12:57 | 10.70487 | 80.76521 | 34954 ft | 475 kts | 95° |
| 2026-04-21 12:57 | 10.70382 | 80.79877 | 35214 ft | 474 kts | 95° |
| 2026-04-21 12:57 | 10.70277 | 80.83239 | 35473 ft | 474 kts | 95° |
| 2026-04-21 12:58 | 10.70172 | 80.86583 | 35735 ft | 474 kts | 95° |
| 2026-04-21 12:58 | 10.70065 | 80.89950 | 35997 ft | 473 kts | 95° |
| 2026-04-21 12:58 | 10.69959 | 80.93285 | 36273 ft | 472 kts | 95° |
| 2026-04-21 12:58 | 10.69853 | 80.96623 | 36542 ft | 472 kts | 95° |
| 2026-04-21 12:59 | 10.69746 | 80.99964 | 36773 ft | 472 kts | 95° |
| 2026-04-21 12:59 | 10.69641 | 81.03252 | 37001 ft | 471 kts | 95° |
| 2026-04-21 12:59 | 10.69534 | 81.06586 | 37235 ft | 471 kts | 95° |
| 2026-04-21 12:59 | 10.69426 | 81.09921 | 37454 ft | 471 kts | 95° |
| 2026-04-21 13:00 | 10.69319 | 81.13253 | 37657 ft | 471 kts | 95° |
| 2026-04-21 13:00 | 10.69211 | 81.16586 | 37862 ft | 471 kts | 95° |
| 2026-04-21 13:00 | 10.69103 | 81.19916 | 38066 ft | 471 kts | 95° |
| 2026-04-21 13:00 | 10.68995 | 81.23240 | 38266 ft | 471 kts | 95° |
| 2026-04-21 13:01 | 10.68886 | 81.26570 | 38457 ft | 470 kts | 95° |
| 2026-04-21 13:01 | 10.68778 | 81.29861 | 38630 ft | 470 kts | 95° |
| 2026-04-21 13:01 | 10.68668 | 81.33174 | 38799 ft | 469 kts | 95° |
| 2026-04-21 13:02 | 10.68450 | 81.39786 | 38820 ft | 467 kts | 95° |
| 2026-04-21 13:02 | 10.68119 | 81.49707 | 38821 ft | 467 kts | 95° |
| 2026-04-21 13:03 | 10.67898 | 81.56309 | 38820 ft | 467 kts | 95° |
| 2026-04-21 13:03 | 10.67674 | 81.62924 | 38821 ft | 467 kts | 95° |
| 2026-04-21 13:04 | 10.67450 | 81.69485 | 38822 ft | 467 kts | 95° |
| 2026-04-21 13:04 | 10.67224 | 81.76087 | 38823 ft | 467 kts | 95° |
| 2026-04-21 13:05 | 10.66996 | 81.82721 | 38825 ft | 468 kts | 95° |
| 2026-04-21 13:05 | 10.66768 | 81.89328 | 38826 ft | 468 kts | 95° |
| 2026-04-21 13:06 | 10.66539 | 81.95903 | 38829 ft | 468 kts | 95° |
| 2026-04-21 13:06 | 10.66307 | 82.02516 | 38830 ft | 468 kts | 95° |
| 2026-04-21 13:07 | 10.66074 | 82.09136 | 38833 ft | 468 kts | 95° |
| 2026-04-21 13:07 | 10.65839 | 82.15749 | 38833 ft | 468 kts | 95° |
| 2026-04-21 13:08 | 10.65603 | 82.22369 | 38833 ft | 468 kts | 95° |
| 2026-04-21 13:08 | 10.65366 | 82.28982 | 38833 ft | 468 kts | 95° |
| 2026-04-21 13:09 | 10.65129 | 82.35551 | 38832 ft | 468 kts | 95° |
| 2026-04-21 13:09 | 10.64889 | 82.42147 | 38826 ft | 466 kts | 95° |
| 2026-04-21 13:10 | 10.64650 | 82.48711 | 38830 ft | 464 kts | 95° |
| 2026-04-21 13:10 | 10.64408 | 82.55274 | 38828 ft | 465 kts | 95° |
| 2026-04-21 13:11 | 10.64166 | 82.61842 | 38830 ft | 464 kts | 95° |
| 2026-04-21 13:11 | 10.63923 | 82.68371 | 38830 ft | 464 kts | 95° |
| 2026-04-21 13:12 | 10.63678 | 82.74944 | 38832 ft | 464 kts | 95° |
| 2026-04-21 13:12 | 10.63331 | 82.81463 | 38831 ft | 462 kts | 100° |
| 2026-04-21 13:13 | 10.61987 | 82.87816 | 38833 ft | 457 kts | 111° |
| 2026-04-21 13:13 | 10.59580 | 82.93779 | 38829 ft | 454 kts | 118° |
| 2026-04-21 13:14 | 10.57380 | 82.98630 | 38834 ft | 454 kts | 117° |
| 2026-04-21 13:14 | 10.54312 | 83.05429 | 38834 ft | 455 kts | 117° |
| 2026-04-21 13:15 | 10.51671 | 83.11272 | 38839 ft | 455 kts | 118° |
| 2026-04-21 13:15 | 10.49466 | 83.16143 | 38848 ft | 454 kts | 117° |
| 2026-04-21 13:16 | 10.46834 | 83.21947 | 38854 ft | 451 kts | 117° |
| 2026-04-21 13:16 | 10.44202 | 83.27753 | 38834 ft | 452 kts | 117° |
| 2026-04-21 13:17 | 10.41573 | 83.33556 | 38830 ft | 452 kts | 117° |
| 2026-04-21 13:17 | 10.38957 | 83.39323 | 38828 ft | 452 kts | 117° |
| 2026-04-21 13:18 | 10.36326 | 83.45120 | 38830 ft | 452 kts | 117° |
| 2026-04-21 13:18 | 10.33690 | 83.50922 | 38840 ft | 451 kts | 117° |
| 2026-04-21 13:19 | 10.31072 | 83.56683 | 38834 ft | 451 kts | 117° |
| 2026-04-21 13:19 | 10.28432 | 83.62488 | 38833 ft | 451 kts | 117° |
| 2026-04-21 13:20 | 10.25810 | 83.68251 | 38832 ft | 451 kts | 117° |
| 2026-04-21 13:20 | 10.23172 | 83.74045 | 38836 ft | 451 kts | 117° |
| 2026-04-21 13:21 | 10.20535 | 83.79834 | 38837 ft | 452 kts | 117° |
| 2026-04-21 13:21 | 10.17894 | 83.85628 | 38846 ft | 452 kts | 117° |
| 2026-04-21 13:22 | 10.15269 | 83.91386 | 38838 ft | 452 kts | 117° |
| 2026-04-21 13:22 | 10.12626 | 83.97181 | 38861 ft | 452 kts | 117° |
| 2026-04-21 13:23 | 10.09979 | 84.02984 | 38850 ft | 452 kts | 117° |
| 2026-04-21 13:23 | 10.07333 | 84.08772 | 38850 ft | 452 kts | 117° |
| 2026-04-21 13:24 | 10.04684 | 84.14569 | 38858 ft | 452 kts | 117° |
| 2026-04-21 13:24 | 10.02057 | 84.20312 | 38843 ft | 451 kts | 117° |
| 2026-04-21 13:25 | 9.99409 | 84.26101 | 38839 ft | 451 kts | 117° |
| 2026-04-21 13:25 | 9.96770 | 84.31866 | 38852 ft | 451 kts | 117° |
| 2026-04-21 13:26 | 9.94121 | 84.37649 | 38848 ft | 450 kts | 117° |
| 2026-04-21 13:26 | 9.91498 | 84.43373 | 38839 ft | 450 kts | 117° |
| 2026-04-21 13:27 | 9.88859 | 84.49131 | 38835 ft | 450 kts | 117° |
| 2026-04-21 13:27 | 9.86222 | 84.54878 | 38834 ft | 449 kts | 117° |
| 2026-04-21 13:28 | 9.83585 | 84.60623 | 38839 ft | 449 kts | 117° |
| 2026-04-21 13:28 | 9.80942 | 84.66379 | 38840 ft | 449 kts | 117° |
| 2026-04-21 13:29 | 9.78301 | 84.72125 | 38835 ft | 448 kts | 117° |
| 2026-04-21 13:29 | 9.75693 | 84.77801 | 38837 ft | 447 kts | 117° |
| 2026-04-21 13:30 | 9.73064 | 84.83522 | 38844 ft | 447 kts | 117° |
| 2026-04-21 13:30 | 9.70427 | 84.89253 | 38857 ft | 447 kts | 117° |
| 2026-04-21 13:31 | 9.67816 | 84.94923 | 38845 ft | 447 kts | 117° |
| 2026-04-21 13:31 | 9.65181 | 85.00644 | 38861 ft | 447 kts | 117° |
| 2026-04-21 13:32 | 9.62547 | 85.06358 | 38859 ft | 447 kts | 116° |
| 2026-04-21 13:32 | 9.59904 | 85.12081 | 38868 ft | 447 kts | 117° |
| 2026-04-21 13:33 | 9.57282 | 85.17764 | 38869 ft | 447 kts | 116° |
| 2026-04-21 13:33 | 9.54649 | 85.23478 | 38868 ft | 447 kts | 116° |
| 2026-04-21 13:34 | 9.52016 | 85.29181 | 38870 ft | 447 kts | 117° |
| 2026-04-21 13:34 | 9.49377 | 85.34894 | 38864 ft | 447 kts | 117° |
| 2026-04-21 13:35 | 9.46743 | 85.40590 | 38855 ft | 446 kts | 117° |
| 2026-04-21 13:35 | 9.44123 | 85.46255 | 38848 ft | 446 kts | 116° |
| 2026-04-21 13:36 | 9.41499 | 85.51934 | 38846 ft | 443 kts | 116° |
| 2026-04-21 13:36 | 9.38873 | 85.57607 | 38848 ft | 444 kts | 116° |
| 2026-04-21 13:37 | 9.36249 | 85.63266 | 38867 ft | 444 kts | 116° |
| 2026-04-21 13:37 | 9.33639 | 85.68894 | 38856 ft | 444 kts | 116° |
| 2026-04-21 13:38 | 9.31012 | 85.74561 | 38859 ft | 444 kts | 116° |
| 2026-04-21 13:38 | 9.28392 | 85.80223 | 38844 ft | 444 kts | 115° |
| 2026-04-21 13:39 | 9.26816 | 85.86255 | 38844 ft | 446 kts | 96° |
| 2026-04-21 13:39 | 9.27189 | 85.92496 | 38837 ft | 450 kts | 78° |
| 2026-04-21 13:40 | 9.29164 | 85.98527 | 38838 ft | 452 kts | 72° |
| 2026-04-21 13:40 | 9.31279 | 86.04534 | 38839 ft | 452 kts | 72° |
| 2026-04-21 13:41 | 9.33375 | 86.10510 | 38842 ft | 453 kts | 72° |
| 2026-04-21 13:41 | 9.35488 | 86.16538 | 38847 ft | 453 kts | 72° |
| 2026-04-21 13:42 | 9.37600 | 86.22561 | 38856 ft | 454 kts | 72° |
| 2026-04-21 13:42 | 9.39715 | 86.28598 | 38860 ft | 454 kts | 72° |
| 2026-04-21 13:43 | 9.41811 | 86.34584 | 38865 ft | 454 kts | 72° |
| 2026-04-21 13:43 | 9.43925 | 86.40624 | 38871 ft | 455 kts | 72° |
| 2026-04-21 13:44 | 9.46037 | 86.46675 | 38859 ft | 455 kts | 72° |
| 2026-04-21 13:44 | 9.48152 | 86.52724 | 38850 ft | 455 kts | 72° |
| 2026-04-21 13:45 | 9.50259 | 86.58745 | 38861 ft | 454 kts | 72° |
| 2026-04-21 13:45 | 9.52358 | 86.64764 | 38851 ft | 453 kts | 72° |
| 2026-04-21 13:46 | 9.54465 | 86.70798 | 38865 ft | 454 kts | 72° |
| 2026-04-21 13:46 | 9.56568 | 86.76829 | 38861 ft | 453 kts | 73° |
| 2026-04-21 13:47 | 9.58655 | 86.82817 | 38856 ft | 453 kts | 72° |
| 2026-04-21 13:47 | 9.60757 | 86.88853 | 38865 ft | 453 kts | 73° |
| 2026-04-21 13:48 | 9.62856 | 86.94884 | 38862 ft | 454 kts | 73° |
| 2026-04-21 13:48 | 9.64955 | 87.00921 | 38862 ft | 453 kts | 73° |
| 2026-04-21 13:49 | 9.67039 | 87.06915 | 38868 ft | 453 kts | 73° |
| 2026-04-21 13:49 | 9.69143 | 87.12973 | 38868 ft | 453 kts | 73° |
| 2026-04-21 13:50 | 9.71220 | 87.18957 | 38856 ft | 453 kts | 73° |
| 2026-04-21 13:50 | 9.73314 | 87.24991 | 38863 ft | 453 kts | 73° |
| 2026-04-21 13:51 | 9.75401 | 87.31012 | 38861 ft | 453 kts | 73° |
| 2026-04-21 13:51 | 9.77500 | 87.37035 | 38871 ft | 452 kts | 72° |
| 2026-04-21 13:52 | 9.79721 | 87.42967 | 38859 ft | 452 kts | 71° |
| 2026-04-21 13:52 | 9.81966 | 87.48922 | 38862 ft | 452 kts | 71° |
| 2026-04-21 13:53 | 9.84193 | 87.54883 | 38844 ft | 452 kts | 71° |
| 2026-04-21 13:53 | 9.86418 | 87.60858 | 38844 ft | 452 kts | 71° |
| 2026-04-21 13:54 | 9.88629 | 87.66800 | 38862 ft | 452 kts | 71° |
| 2026-04-21 13:54 | 9.90850 | 87.72773 | 38864 ft | 452 kts | 71° |
| 2026-04-21 13:55 | 9.93072 | 87.78750 | 38853 ft | 452 kts | 71° |
| 2026-04-21 13:55 | 9.95278 | 87.84690 | 38860 ft | 452 kts | 71° |
| 2026-04-21 13:56 | 9.97488 | 87.90643 | 38862 ft | 452 kts | 72° |
| 2026-04-21 13:56 | 9.99709 | 87.96627 | 38865 ft | 452 kts | 72° |
| 2026-04-21 13:57 | 10.01928 | 88.02612 | 38864 ft | 453 kts | 72° |
| 2026-04-21 13:57 | 10.04140 | 88.08581 | 38864 ft | 453 kts | 72° |
| 2026-04-21 13:58 | 10.06359 | 88.14573 | 38866 ft | 453 kts | 72° |
| 2026-04-21 13:58 | 10.08557 | 88.20513 | 38868 ft | 452 kts | 72° |
| 2026-04-21 13:59 | 10.10774 | 88.26506 | 38867 ft | 452 kts | 72° |
| 2026-04-21 13:59 | 10.12983 | 88.32481 | 38868 ft | 452 kts | 72° |
| 2026-04-21 14:00 | 10.15192 | 88.38460 | 38869 ft | 452 kts | 72° |
| 2026-04-21 14:00 | 10.17400 | 88.44440 | 38864 ft | 452 kts | 72° |
| 2026-04-21 14:01 | 10.19588 | 88.50369 | 38865 ft | 451 kts | 72° |
| 2026-04-21 14:01 | 10.21794 | 88.56352 | 38854 ft | 451 kts | 72° |
| 2026-04-21 14:02 | 10.23997 | 88.62326 | 38853 ft | 451 kts | 72° |
| 2026-04-21 14:03 | 10.26929 | 88.70279 | 38854 ft | 451 kts | 72° |
| 2026-04-21 14:03 | 10.29488 | 88.77227 | 38860 ft | 451 kts | 72° |
| 2026-04-21 14:04 | 10.31331 | 88.82235 | 38850 ft | 451 kts | 72° |
| 2026-04-21 14:04 | 10.33515 | 88.88174 | 38862 ft | 451 kts | 72° |
| 2026-04-21 14:05 | 10.35710 | 88.94146 | 38869 ft | 451 kts | 72° |
| 2026-04-21 14:05 | 10.37909 | 89.00131 | 38862 ft | 451 kts | 72° |
| 2026-04-21 14:06 | 10.40100 | 89.06102 | 38870 ft | 451 kts | 72° |
| 2026-04-21 14:06 | 10.42294 | 89.12080 | 38868 ft | 451 kts | 72° |
| 2026-04-21 14:07 | 10.44474 | 89.18027 | 38864 ft | 451 kts | 72° |
| 2026-04-21 14:07 | 10.46663 | 89.24001 | 38863 ft | 451 kts | 72° |
| 2026-04-21 14:08 | 10.48851 | 89.29977 | 38868 ft | 450 kts | 72° |
| 2026-04-21 14:08 | 10.51017 | 89.35898 | 38869 ft | 450 kts | 72° |
| 2026-04-21 14:09 | 10.53199 | 89.41865 | 38867 ft | 449 kts | 72° |
| 2026-04-21 14:09 | 10.55375 | 89.47820 | 38868 ft | 449 kts | 72° |
| 2026-04-21 14:10 | 10.57552 | 89.53780 | 38863 ft | 449 kts | 72° |
| 2026-04-21 14:10 | 10.59711 | 89.59699 | 38854 ft | 449 kts | 72° |
| 2026-04-21 14:11 | 10.61885 | 89.65658 | 38854 ft | 449 kts | 72° |
| 2026-04-21 14:11 | 10.64057 | 89.71615 | 38857 ft | 450 kts | 72° |
| 2026-04-21 14:12 | 10.66232 | 89.77587 | 38860 ft | 450 kts | 72° |
| 2026-04-21 14:12 | 10.68410 | 89.83572 | 38864 ft | 450 kts | 72° |
| 2026-04-21 14:13 | 10.70588 | 89.89558 | 38860 ft | 451 kts | 72° |
| 2026-04-21 14:13 | 10.72746 | 89.95497 | 38862 ft | 451 kts | 72° |
| 2026-04-21 14:14 | 10.74913 | 90.01489 | 38874 ft | 451 kts | 73° |
| 2026-04-21 14:14 | 10.76978 | 90.07513 | 38877 ft | 450 kts | 73° |
| 2026-04-21 14:15 | 10.79035 | 90.13537 | 38879 ft | 451 kts | 73° |
| 2026-04-21 14:15 | 10.81101 | 90.19558 | 38878 ft | 451 kts | 73° |
| 2026-04-21 14:16 | 10.83173 | 90.25592 | 38877 ft | 450 kts | 73° |
| 2026-04-21 14:16 | 10.85224 | 90.31570 | 38875 ft | 450 kts | 73° |
| 2026-04-21 14:17 | 10.87290 | 90.37594 | 38879 ft | 450 kts | 73° |
| 2026-04-21 14:17 | 10.89339 | 90.43583 | 38870 ft | 445 kts | 73° |
| 2026-04-21 14:18 | 10.91370 | 90.49541 | 38868 ft | 447 kts | 73° |
| 2026-04-21 14:18 | 10.93417 | 90.55503 | 38866 ft | 446 kts | 73° |
| 2026-04-21 14:19 | 10.95452 | 90.61458 | 38868 ft | 449 kts | 73° |
| 2026-04-21 14:19 | 10.97496 | 90.67454 | 38866 ft | 448 kts | 73° |
| 2026-04-21 14:20 | 10.99551 | 90.73453 | 38865 ft | 448 kts | 73° |
| 2026-04-21 14:20 | 11.01594 | 90.79434 | 38858 ft | 447 kts | 73° |
| 2026-04-21 14:21 | 11.03625 | 90.85392 | 38860 ft | 447 kts | 73° |
| 2026-04-21 14:21 | 11.05659 | 90.91362 | 38850 ft | 446 kts | 73° |
| 2026-04-21 14:22 | 11.07696 | 90.97347 | 38859 ft | 446 kts | 73° |
| 2026-04-21 14:22 | 11.09728 | 91.03320 | 38856 ft | 446 kts | 73° |
| 2026-04-21 14:23 | 11.11756 | 91.09286 | 38861 ft | 446 kts | 73° |
| 2026-04-21 14:23 | 11.13777 | 91.15238 | 38860 ft | 447 kts | 73° |
| 2026-04-21 14:24 | 11.15811 | 91.21228 | 38862 ft | 447 kts | 73° |
| 2026-04-21 14:24 | 11.17833 | 91.27189 | 38867 ft | 447 kts | 73° |
| 2026-04-21 14:25 | 11.19868 | 91.33194 | 38869 ft | 448 kts | 73° |
| 2026-04-21 14:25 | 11.21900 | 91.39193 | 38875 ft | 448 kts | 73° |
| 2026-04-21 14:26 | 11.23936 | 91.45210 | 38874 ft | 448 kts | 73° |
| 2026-04-21 14:26 | 11.25950 | 91.51164 | 38877 ft | 449 kts | 73° |
| 2026-04-21 14:27 | 11.27985 | 91.57184 | 38885 ft | 449 kts | 73° |
| 2026-04-21 14:27 | 11.30020 | 91.63210 | 38884 ft | 449 kts | 73° |
| 2026-04-21 14:28 | 11.32038 | 91.69191 | 38869 ft | 449 kts | 73° |
| 2026-04-21 14:28 | 11.34069 | 91.75211 | 38872 ft | 449 kts | 73° |
| 2026-04-21 14:29 | 11.36091 | 91.81231 | 38874 ft | 449 kts | 74° |
| 2026-04-21 14:29 | 11.37973 | 91.87297 | 38874 ft | 448 kts | 75° |
| 2026-04-21 14:30 | 11.39821 | 91.93340 | 38878 ft | 448 kts | 75° |
| 2026-04-21 14:30 | 11.41691 | 91.99400 | 38880 ft | 448 kts | 74° |
| 2026-04-21 14:31 | 11.43575 | 92.05466 | 38879 ft | 448 kts | 74° |
| 2026-04-21 14:31 | 11.45452 | 92.11519 | 38874 ft | 447 kts | 74° |
| 2026-04-21 14:32 | 11.47313 | 92.17534 | 38870 ft | 447 kts | 74° |
| 2026-04-21 14:32 | 11.49187 | 92.23594 | 38869 ft | 447 kts | 74° |
| 2026-04-21 14:33 | 11.51058 | 92.29651 | 38863 ft | 447 kts | 74° |
| 2026-04-21 14:33 | 11.52923 | 92.35691 | 38866 ft | 446 kts | 74° |
| 2026-04-21 14:34 | 11.54774 | 92.41693 | 38863 ft | 446 kts | 74° |
| 2026-04-21 14:34 | 11.56634 | 92.47729 | 38860 ft | 446 kts | 74° |
| 2026-04-21 14:35 | 11.58182 | 92.52754 | 38857 ft | 446 kts | 74° |
| 2026-04-21 14:35 | 11.60355 | 92.59814 | 38853 ft | 446 kts | 74° |
| 2026-04-21 14:36 | 11.62212 | 92.65856 | 38854 ft | 445 kts | 74° |
| 2026-04-21 14:36 | 11.64058 | 92.71854 | 38859 ft | 445 kts | 74° |
| 2026-04-21 14:37 | 11.66288 | 92.77756 | 38885 ft | 446 kts | 66° |
| 2026-04-21 14:37 | 11.68886 | 92.83509 | 38868 ft | 446 kts | 66° |
| 2026-04-21 14:38 | 11.71454 | 92.89234 | 38867 ft | 446 kts | 66° |
| 2026-04-21 14:38 | 11.74045 | 92.95010 | 38875 ft | 446 kts | 66° |
| 2026-04-21 14:39 | 11.76624 | 93.00761 | 38875 ft | 446 kts | 66° |
| 2026-04-21 14:39 | 11.79206 | 93.06524 | 38867 ft | 446 kts | 66° |
| 2026-04-21 14:40 | 11.81782 | 93.12275 | 38869 ft | 446 kts | 66° |
| 2026-04-21 14:40 | 11.84348 | 93.18008 | 38872 ft | 446 kts | 66° |
| 2026-04-21 14:41 | 11.86933 | 93.23785 | 38872 ft | 446 kts | 66° |
| 2026-04-21 14:41 | 11.89514 | 93.29559 | 38874 ft | 446 kts | 66° |
| 2026-04-21 14:42 | 11.92074 | 93.35291 | 38879 ft | 446 kts | 66° |
| 2026-04-21 14:42 | 11.94653 | 93.41066 | 38880 ft | 447 kts | 66° |
| 2026-04-21 14:43 | 11.97240 | 93.46862 | 38880 ft | 447 kts | 66° |
| 2026-04-21 14:43 | 11.99801 | 93.52606 | 38882 ft | 447 kts | 66° |
| 2026-04-21 14:44 | 12.02382 | 93.58396 | 38881 ft | 447 kts | 66° |
| 2026-04-21 14:44 | 12.04957 | 93.64174 | 38880 ft | 447 kts | 66° |
| 2026-04-21 14:45 | 12.07535 | 93.69969 | 38882 ft | 447 kts | 66° |
| 2026-04-21 14:45 | 12.10110 | 93.75759 | 38882 ft | 447 kts | 66° |
| 2026-04-21 14:46 | 12.12684 | 93.81550 | 38867 ft | 448 kts | 66° |
| 2026-04-21 14:46 | 12.15281 | 93.87384 | 38879 ft | 453 kts | 66° |
| 2026-04-21 14:47 | 12.17855 | 93.93192 | 38879 ft | 451 kts | 66° |
| 2026-04-21 14:47 | 12.20013 | 93.98063 | 38878 ft | 452 kts | 66° |
| 2026-04-21 14:48 | 12.22608 | 94.03915 | 38878 ft | 451 kts | 66° |
| 2026-04-21 14:48 | 12.25235 | 94.09756 | 38880 ft | 451 kts | 66° |
| 2026-04-21 14:49 | 12.27867 | 94.15587 | 38878 ft | 451 kts | 66° |
| 2026-04-21 14:49 | 12.30500 | 94.21437 | 38876 ft | 454 kts | 66° |
| 2026-04-21 14:50 | 12.33150 | 94.27339 | 38876 ft | 457 kts | 66° |
| 2026-04-21 14:50 | 12.35787 | 94.33203 | 38875 ft | 456 kts | 66° |
| 2026-04-21 14:51 | 12.38442 | 94.39121 | 38875 ft | 458 kts | 66° |
| 2026-04-21 14:51 | 12.41113 | 94.45052 | 38875 ft | 458 kts | 65° |
| 2026-04-21 14:52 | 12.43786 | 94.50943 | 38872 ft | 457 kts | 65° |
| 2026-04-21 14:52 | 12.46457 | 94.56838 | 38866 ft | 457 kts | 65° |
| 2026-04-21 14:53 | 12.49145 | 94.62778 | 38875 ft | 462 kts | 66° |
| 2026-04-21 14:53 | 12.51842 | 94.68744 | 38874 ft | 460 kts | 66° |
| 2026-04-21 14:54 | 12.54517 | 94.74666 | 38875 ft | 461 kts | 66° |
| 2026-04-21 14:54 | 12.57213 | 94.80639 | 38879 ft | 461 kts | 66° |
| 2026-04-21 14:55 | 12.59905 | 94.86607 | 38882 ft | 461 kts | 66° |
| 2026-04-21 14:55 | 12.62576 | 94.92533 | 38878 ft | 461 kts | 66° |
| 2026-04-21 14:56 | 12.65265 | 94.98503 | 38877 ft | 460 kts | 66° |
| 2026-04-21 14:56 | 12.67947 | 95.04462 | 38876 ft | 460 kts | 66° |
| 2026-04-21 14:57 | 12.70628 | 95.10421 | 38877 ft | 460 kts | 66° |
| 2026-04-21 14:57 | 12.73289 | 95.16341 | 38869 ft | 460 kts | 66° |
| 2026-04-21 14:58 | 12.75969 | 95.22308 | 38872 ft | 460 kts | 66° |
| 2026-04-21 14:58 | 12.78650 | 95.28282 | 38870 ft | 461 kts | 66° |
| 2026-04-21 14:59 | 12.81312 | 95.34216 | 38876 ft | 460 kts | 66° |
| 2026-04-21 14:59 | 12.83987 | 95.40185 | 38880 ft | 460 kts | 66° |
| 2026-04-21 15:00 | 12.86658 | 95.46144 | 38880 ft | 460 kts | 66° |
| 2026-04-21 15:00 | 12.89346 | 95.52094 | 38879 ft | 460 kts | 65° |
| 2026-04-21 15:01 | 12.92067 | 95.58030 | 38877 ft | 460 kts | 65° |
| 2026-04-21 15:01 | 12.94792 | 95.63987 | 38873 ft | 460 kts | 66° |
| 2026-04-21 15:02 | 12.97484 | 95.69886 | 38872 ft | 460 kts | 66° |
| 2026-04-21 15:02 | 13.00193 | 95.75830 | 38872 ft | 459 kts | 65° |
| 2026-04-21 15:03 | 13.02903 | 95.81782 | 38869 ft | 459 kts | 65° |
| 2026-04-21 15:03 | 13.05604 | 95.87717 | 38869 ft | 459 kts | 65° |
| 2026-04-21 15:04 | 13.08290 | 95.93621 | 38862 ft | 459 kts | 65° |
| 2026-04-21 15:04 | 13.10993 | 95.99569 | 38858 ft | 459 kts | 65° |
| 2026-04-21 15:05 | 13.13693 | 96.05516 | 38859 ft | 459 kts | 65° |
| 2026-04-21 15:05 | 13.17729 | 96.14415 | 38853 ft | 460 kts | 65° |
| 2026-04-21 15:06 | 13.20433 | 96.20380 | 38856 ft | 461 kts | 65° |
| 2026-04-21 15:06 | 13.23127 | 96.26327 | 38863 ft | 461 kts | 65° |
| 2026-04-21 15:07 | 13.25835 | 96.32309 | 38866 ft | 462 kts | 65° |
| 2026-04-21 15:07 | 13.28550 | 96.38313 | 38870 ft | 463 kts | 65° |
| 2026-04-21 15:08 | 13.31268 | 96.44326 | 38872 ft | 463 kts | 65° |
| 2026-04-21 15:08 | 13.33959 | 96.50294 | 38879 ft | 464 kts | 65° |
| 2026-04-21 15:09 | 13.36674 | 96.56307 | 38866 ft | 463 kts | 65° |
| 2026-04-21 15:09 | 13.39380 | 96.62303 | 38866 ft | 463 kts | 65° |
| 2026-04-21 15:10 | 13.42094 | 96.68328 | 38867 ft | 464 kts | 65° |
| 2026-04-21 15:10 | 13.44806 | 96.74362 | 38867 ft | 464 kts | 65° |
| 2026-04-21 15:11 | 13.47499 | 96.80340 | 38867 ft | 464 kts | 65° |
| 2026-04-21 15:11 | 13.50211 | 96.86373 | 38864 ft | 464 kts | 65° |
| 2026-04-21 15:12 | 13.52910 | 96.92380 | 38867 ft | 464 kts | 65° |
| 2026-04-21 15:12 | 13.55612 | 96.98392 | 38860 ft | 463 kts | 65° |
| 2026-04-21 15:13 | 13.58311 | 97.04410 | 38865 ft | 463 kts | 65° |
| 2026-04-21 15:13 | 13.61007 | 97.10425 | 38865 ft | 463 kts | 65° |
| 2026-04-21 15:14 | 13.63708 | 97.16455 | 38865 ft | 464 kts | 65° |
| 2026-04-21 15:14 | 13.66387 | 97.22442 | 38870 ft | 464 kts | 65° |
| 2026-04-21 15:15 | 13.69086 | 97.28476 | 38867 ft | 463 kts | 65° |
| 2026-04-21 15:15 | 13.71781 | 97.34508 | 38866 ft | 463 kts | 65° |
| 2026-04-21 15:16 | 13.74469 | 97.40528 | 38871 ft | 463 kts | 65° |
| 2026-04-21 15:16 | 13.77170 | 97.46581 | 38867 ft | 466 kts | 65° |
| 2026-04-21 15:17 | 13.79853 | 97.52599 | 38866 ft | 465 kts | 65° |
| 2026-04-21 15:17 | 13.82549 | 97.58653 | 38866 ft | 464 kts | 65° |
| 2026-04-21 15:18 | 13.85226 | 97.64668 | 38868 ft | 464 kts | 65° |
| 2026-04-21 15:18 | 13.87911 | 97.70704 | 38867 ft | 463 kts | 65° |
| 2026-04-21 15:19 | 13.90593 | 97.76738 | 38865 ft | 463 kts | 65° |
| 2026-04-21 15:19 | 13.93270 | 97.82764 | 38861 ft | 463 kts | 65° |
| 2026-04-21 15:20 | 13.95935 | 97.88771 | 38857 ft | 463 kts | 65° |
| 2026-04-21 15:20 | 13.98612 | 97.94807 | 38859 ft | 463 kts | 65° |
| 2026-04-21 15:21 | 14.01281 | 98.00844 | 38866 ft | 462 kts | 65° |
| 2026-04-21 15:21 | 14.03942 | 98.06854 | 38871 ft | 463 kts | 65° |
| 2026-04-21 15:22 | 14.06622 | 98.12901 | 38875 ft | 463 kts | 65° |
| 2026-04-21 15:22 | 14.09260 | 98.18913 | 38869 ft | 463 kts | 67° |
| 2026-04-21 15:23 | 14.11270 | 98.25228 | 38871 ft | 464 kts | 74° |
| 2026-04-21 15:23 | 14.12965 | 98.31655 | 38876 ft | 464 kts | 74° |
| 2026-04-21 15:24 | 14.14673 | 98.38072 | 38901 ft | 465 kts | 74° |
| 2026-04-21 15:24 | 14.16364 | 98.44446 | 38911 ft | 465 kts | 74° |
| 2026-04-21 15:25 | 14.18064 | 98.50872 | 38906 ft | 465 kts | 74° |
| 2026-04-21 15:25 | 14.19767 | 98.57316 | 38599 ft | 464 kts | 74° |
| 2026-04-21 15:26 | 14.20612 | 98.60518 | 38329 ft | 464 kts | 74° |
| 2026-04-21 15:26 | 14.21460 | 98.63728 | 38064 ft | 465 kts | 74° |
| 2026-04-21 15:26 | 14.22312 | 98.66959 | 37488 ft | 468 kts | 74° |
| 2026-04-21 15:26 | 14.23168 | 98.70201 | 36615 ft | 470 kts | 74° |
| 2026-04-21 15:27 | 14.24006 | 98.73379 | 35914 ft | 463 kts | 74° |
| 2026-04-21 15:27 | 14.24865 | 98.76639 | 35116 ft | 463 kts | 74° |
| 2026-04-21 15:27 | 14.25715 | 98.79853 | 34335 ft | 466 kts | 74° |
| 2026-04-21 15:27 | 14.26565 | 98.83084 | 33479 ft | 469 kts | 74° |
| 2026-04-21 15:28 | 14.27411 | 98.86294 | 32715 ft | 469 kts | 74° |
| 2026-04-21 15:28 | 14.28273 | 98.89553 | 31844 ft | 471 kts | 74° |
| 2026-04-21 15:28 | 14.29133 | 98.92823 | 30968 ft | 474 kts | 74° |
| 2026-04-21 15:28 | 14.29799 | 98.96140 | 30368 ft | 471 kts | 83° |
| 2026-04-21 15:29 | 14.29934 | 98.99512 | 29772 ft | 470 kts | 92° |
| 2026-04-21 15:29 | 14.29521 | 99.02839 | 29135 ft | 466 kts | 102° |
| 2026-04-21 15:29 | 14.28722 | 99.06059 | 28511 ft | 460 kts | 104° |
| 2026-04-21 15:29 | 14.27915 | 99.09234 | 27880 ft | 455 kts | 104° |
| 2026-04-21 15:30 | 14.27121 | 99.12369 | 27254 ft | 450 kts | 104° |
| 2026-04-21 15:30 | 14.26333 | 99.15480 | 26617 ft | 446 kts | 104° |
| 2026-04-21 15:30 | 14.25817 | 99.17520 | 26214 ft | 443 kts | 104° |
| 2026-04-21 15:30 | 14.24781 | 99.21613 | 25394 ft | 438 kts | 104° |
| 2026-04-21 15:31 | 14.24270 | 99.23624 | 24950 ft | 437 kts | 104° |
| 2026-04-21 15:31 | 14.23504 | 99.26640 | 24311 ft | 433 kts | 104° |
| 2026-04-21 15:31 | 14.22745 | 99.29635 | 23701 ft | 430 kts | 104° |
| 2026-04-21 15:31 | 14.22001 | 99.32569 | 23023 ft | 427 kts | 104° |
| 2026-04-21 15:32 | 14.21255 | 99.35505 | 22462 ft | 420 kts | 104° |
| 2026-04-21 15:32 | 14.20516 | 99.38414 | 21861 ft | 415 kts | 104° |
| 2026-04-21 15:32 | 14.19788 | 99.41272 | 21254 ft | 410 kts | 104° |
| 2026-04-21 15:32 | 14.19064 | 99.44107 | 20621 ft | 406 kts | 104° |
| 2026-04-21 15:33 | 14.18377 | 99.46917 | 20045 ft | 402 kts | 100° |
| 2026-04-21 15:33 | 14.18044 | 99.49757 | 19445 ft | 398 kts | 91° |
| 2026-04-21 15:33 | 14.18141 | 99.52564 | 18837 ft | 395 kts | 82° |
| 2026-04-21 15:33 | 14.18576 | 99.55373 | 18237 ft | 392 kts | 79° |
| 2026-04-21 15:34 | 14.19020 | 99.58098 | 17605 ft | 389 kts | 80° |
| 2026-04-21 15:34 | 14.19457 | 99.60830 | 17068 ft | 383 kts | 80° |
| 2026-04-21 15:34 | 14.19883 | 99.63518 | 16503 ft | 379 kts | 80° |
| 2026-04-21 15:34 | 14.20305 | 99.66189 | 15944 ft | 376 kts | 80° |
| 2026-04-21 15:35 | 14.20721 | 99.68829 | 15351 ft | 373 kts | 80° |
| 2026-04-21 15:35 | 14.21137 | 99.71462 | 14815 ft | 369 kts | 80° |
| 2026-04-21 15:35 | 14.21550 | 99.74074 | 14267 ft | 366 kts | 80° |
| 2026-04-21 15:35 | 14.21953 | 99.76634 | 13726 ft | 364 kts | 80° |
| 2026-04-21 15:36 | 14.22357 | 99.79196 | 13148 ft | 361 kts | 80° |
| 2026-04-21 15:36 | 14.22757 | 99.81737 | 12630 ft | 356 kts | 80° |
| 2026-04-21 15:36 | 14.23152 | 99.84250 | 12102 ft | 352 kts | 80° |
| 2026-04-21 15:36 | 14.23543 | 99.86732 | 11584 ft | 349 kts | 80° |
| 2026-04-21 15:37 | 14.23930 | 99.89193 | 11062 ft | 346 kts | 80° |
| 2026-04-21 15:37 | 14.24314 | 99.91635 | 10535 ft | 343 kts | 81° |
| 2026-04-21 15:37 | 14.24692 | 99.94046 | 10150 ft | 337 kts | 81° |
| 2026-04-21 15:37 | 14.25053 | 99.96350 | 10023 ft | 322 kts | 81° |
| 2026-04-21 15:38 | 14.25401 | 99.98572 | 9907 ft | 307 kts | 81° |
| 2026-04-21 15:38 | 14.25739 | 100.00736 | 9694 ft | 297 kts | 81° |
| 2026-04-21 15:38 | 14.26058 | 100.02775 | 9519 ft | 287 kts | 81° |
| 2026-04-21 15:38 | 14.26366 | 100.04798 | 9173 ft | 285 kts | 83° |
| 2026-04-21 15:39 | 14.26426 | 100.06831 | 8851 ft | 280 kts | 94° |
| 2026-04-21 15:39 | 14.26181 | 100.08841 | 8761 ft | 292 kts | 98° |
| 2026-04-21 15:39 | 14.25913 | 100.10916 | 8606 ft | 291 kts | 97° |
| 2026-04-21 15:39 | 14.25659 | 100.12981 | 8442 ft | 289 kts | 97° |
| 2026-04-21 15:40 | 14.25405 | 100.15047 | 8288 ft | 290 kts | 97° |
| 2026-04-21 15:40 | 14.25151 | 100.17113 | 8125 ft | 289 kts | 98° |
| 2026-04-21 15:40 | 14.24900 | 100.19140 | 7978 ft | 289 kts | 98° |
| 2026-04-21 15:40 | 14.24644 | 100.21189 | 7818 ft | 290 kts | 97° |
| 2026-04-21 15:41 | 14.24382 | 100.23268 | 7664 ft | 291 kts | 97° |
| 2026-04-21 15:41 | 14.24124 | 100.25334 | 7505 ft | 290 kts | 97° |
| 2026-04-21 15:41 | 14.23866 | 100.27397 | 7352 ft | 290 kts | 97° |
| 2026-04-21 15:41 | 14.23608 | 100.29467 | 7196 ft | 289 kts | 97° |
| 2026-04-21 15:42 | 14.23354 | 100.31495 | 7040 ft | 288 kts | 97° |
| 2026-04-21 15:42 | 14.23097 | 100.33545 | 6941 ft | 289 kts | 97° |
| 2026-04-21 15:42 | 14.22839 | 100.35608 | 6638 ft | 289 kts | 97° |
| 2026-04-21 15:42 | 14.22583 | 100.37642 | 6465 ft | 282 kts | 97° |
| 2026-04-21 15:43 | 14.22338 | 100.39591 | 6370 ft | 270 kts | 97° |
| 2026-04-21 15:43 | 14.22102 | 100.41473 | 6221 ft | 261 kts | 97° |
| 2026-04-21 15:43 | 14.21869 | 100.43329 | 5936 ft | 257 kts | 98° |
| 2026-04-21 15:43 | 14.21639 | 100.45151 | 5675 ft | 254 kts | 98° |
| 2026-04-21 15:44 | 14.21415 | 100.46938 | 5416 ft | 250 kts | 99° |
| 2026-04-21 15:44 | 14.21197 | 100.48693 | 5235 ft | 243 kts | 99° |
| 2026-04-21 15:44 | 14.20984 | 100.50417 | 5053 ft | 244 kts | 99° |
| 2026-04-21 15:44 | 14.20760 | 100.52149 | 4990 ft | 242 kts | 99° |
| 2026-04-21 15:45 | 14.20540 | 100.53874 | 4990 ft | 244 kts | 99° |
| 2026-04-21 15:45 | 14.20330 | 100.55567 | 4988 ft | 241 kts | 100° |
| 2026-04-21 15:45 | 14.20116 | 100.57286 | 4989 ft | 242 kts | 100° |
| 2026-04-21 15:45 | 14.19897 | 100.59000 | 4985 ft | 237 kts | 99° |
| 2026-04-21 15:46 | 14.19691 | 100.60632 | 4982 ft | 223 kts | 99° |
| 2026-04-21 15:46 | 14.19495 | 100.62181 | 4988 ft | 218 kts | 99° |
| 2026-04-21 15:46 | 14.19296 | 100.63745 | 4990 ft | 219 kts | 99° |
| 2026-04-21 15:46 | 14.19040 | 100.65280 | 4978 ft | 217 kts | 112° |
| 2026-04-21 15:47 | 14.18212 | 100.66506 | 4778 ft | 211 kts | 143° |
| 2026-04-21 15:47 | 14.16866 | 100.67118 | 4215 ft | 217 kts | 165° |
| 2026-04-21 15:47 | 14.15369 | 100.67515 | 3640 ft | 224 kts | 166° |
| 2026-04-21 15:47 | 14.13874 | 100.67909 | 3287 ft | 219 kts | 166° |
| 2026-04-21 15:48 | 14.12403 | 100.68310 | 2939 ft | 216 kts | 166° |
| 2026-04-21 15:48 | 14.10965 | 100.68712 | 2670 ft | 214 kts | 166° |
| 2026-04-21 15:48 | 14.09508 | 100.69126 | 2594 ft | 217 kts | 166° |
| 2026-04-21 15:48 | 14.08052 | 100.69484 | 2577 ft | 214 kts | 177° |
| 2026-04-21 15:49 | 14.06683 | 100.69178 | 2589 ft | 199 kts | 204° |
| 2026-04-21 15:49 | 14.05485 | 100.68589 | 2604 ft | 183 kts | 202° |
| 2026-04-21 15:49 | 14.04374 | 100.68073 | 2591 ft | 176 kts | 201° |
| 2026-04-21 15:49 | 14.03241 | 100.67555 | 2353 ft | 175 kts | 203° |
| 2026-04-21 15:50 | 14.02199 | 100.67020 | 2107 ft | 158 kts | 204° |
| 2026-04-21 15:50 | 14.01292 | 100.66526 | 1908 ft | 137 kts | 204° |
| 2026-04-21 15:50 | 14.00509 | 100.66088 | 1732 ft | 120 kts | 204° |
| 2026-04-21 15:50 | 13.99790 | 100.65684 | 1589 ft | 122 kts | 204° |
| 2026-04-21 15:51 | 13.99048 | 100.65267 | 1429 ft | 120 kts | 205° |
| 2026-04-21 15:51 | 13.98319 | 100.64856 | 1274 ft | 119 kts | 204° |
| 2026-04-21 15:51 | 13.97574 | 100.64436 | 1110 ft | 124 kts | 205° |
| 2026-04-21 15:51 | 13.96823 | 100.64010 | 958 ft | 120 kts | 204° |
| 2026-04-21 15:52 | 13.96091 | 100.63600 | 817 ft | 121 kts | 206° |
| 2026-04-21 15:52 | 13.95345 | 100.63178 | 671 ft | 123 kts | 208° |
| 2026-04-21 15:52 | 13.94594 | 100.62754 | 525 ft | 125 kts | 208° |
| 2026-04-21 15:52 | 13.93837 | 100.62333 | 356 ft | 120 kts | 206° |
| 2026-04-21 15:53 | 13.93111 | 100.61926 | 212 ft | 120 kts | 206° |
| 2026-04-21 15:53 | 13.92386 | 100.61518 | 43 ft | 119 kts | 206° |
| 2026-04-21 15:53 | 13.91722 | 100.61147 | 18 ft | 86 kts | 209° |
| 2026-04-21 15:53 | 13.91382 | 100.60953 | 16 ft | 35 kts | 208° |
| 2026-04-21 15:54 | 13.91172 | 100.60836 | 16 ft | 34 kts | 208° |
| 2026-04-21 15:54 | 13.90964 | 100.60718 | 19 ft | 34 kts | 211° |
| 2026-04-21 15:54 | 13.90759 | 100.60605 | 22 ft | 34 kts | 208° |
| 2026-04-21 15:54 | 13.90588 | 100.60509 | 19 ft | 27 kts | 208° |
| 2026-04-21 15:55 | 13.90418 | 100.60414 | 19 ft | 28 kts | 208° |
| 2026-04-21 15:55 | 13.90237 | 100.60312 | 17 ft | 30 kts | 208° |
| 2026-04-21 15:55 | 13.90141 | 100.60189 | 17 ft | 22 kts | 276° |
| 2026-04-21 15:55 | 13.90157 | 100.60150 | 20 ft | 3 kts | 299° |
| 2026-04-21 15:56 | 13.90175 | 100.60116 | 17 ft | 8 kts | 300° |
| 2026-04-21 15:56 | 13.90210 | 100.60053 | 17 ft | 12 kts | 300° |
| 2026-04-21 15:56 | 13.90259 | 100.59966 | 17 ft | 16 kts | 299° |
| 2026-04-21 15:56 | 13.90317 | 100.59856 | 16 ft | 16 kts | 299° |
| 2026-04-21 15:57 | 13.90364 | 100.59796 | 16 ft | 10 kts | 334° |
| 2026-04-21 15:57 | 13.90438 | 100.59819 | 17 ft | 14 kts | 30° |
| 2026-04-21 15:57 | 13.90537 | 100.59874 | 16 ft | 18 kts | 28° |
| 2026-04-21 15:57 | 13.90662 | 100.59944 | 17 ft | 22 kts | 29° |
| 2026-04-21 15:58 | 13.90809 | 100.60026 | 17 ft | 26 kts | 28° |
| 2026-04-21 15:58 | 13.90976 | 100.60120 | 17 ft | 29 kts | 29° |
| 2026-04-21 15:58 | 13.91161 | 100.60224 | 17 ft | 32 kts | 28° |
| 2026-04-21 15:58 | 13.91337 | 100.60321 | 17 ft | 12 kts | 28° |
| 2026-04-21 15:59 | 13.91414 | 100.60311 | 19 ft | 14 kts | 307° |
| 2026-04-21 15:59 | 13.91455 | 100.60238 | 19 ft | 0 kts | 299° |
| 2026-04-21 15:59 | 13.91461 | 100.60223 | 17 ft | 4 kts | 284° |
| 2026-04-21 15:59 | 13.91441 | 100.60207 | 18 ft | 5 kts | 187° |
| 2026-04-21 16:00 | 13.91399 | 100.60189 | 17 ft | 8 kts | 208° |
| 2026-04-21 16:00 | 13.91385 | 100.60182 | 19 ft | 0 kts | 209° |